Terminal Aerodrome Forecast
Issued by NWS

Home | Current Version | Previous Version | Text Only | Print | Product List | Glossary Off
Versions: 1 2 3 4 5 6 7 8 9 10 11 12 13 14 15 16 17 18 19 20

824
FTUS43 KABR 272325
TAFPIR
TAF
KPIR 272325Z 2800/2824 19020G25KT P6SM BKN150
     FM280200 19015G22KT P6SM VCTS BKN090CB
      TEMPO 2802/2804 VRB20G40KT 2SM TSRA OVC050CB
     FM280600 27009KT P6SM BKN200
     FM281200 31013KT P6SM SCT200
     FM282300 34009KT P6SM FEW200=

USA.gov is the U.S. government's official web portal to all federal, state and local government web resources and services.